Time;durP1;ratioP1;P1;durP2;ratioP2;P2;SDS_P1;SDS_P2;PMS_P1;PMS_P2;Temp;Humidity;BMP_temperature;BMP_pressure;BME280_temperature;BME280_humidity;BME280_pressure;Samples;Min_cycle;Max_cycle;Signal;HPM_P1;HPM_P2
2021/09/20 00:01:04;;;;;;;6.72;3.30;;;;;;;;;;4983839;28;20030;-61
2021/09/20 00:03:30;;;;;;;8.20;3.38;;;;;;;;;;4987735;28;20033;-62
2021/09/20 00:05:58;;;;;;;7.95;3.72;;;;;;;;;;5006152;28;20515;-62
2021/09/20 00:08:26;;;;;;;11.70;4.00;;;;;;;;;;4993961;28;20420;-62
2021/09/20 00:10:56;;;;;;;10.82;3.92;;;;;;;;;;4977884;28;20038;-62
2021/09/20 00:13:24;;;;;;;10.80;3.88;;;;;;;;;;4979576;28;20125;-62
2021/09/20 00:15:52;;;;;;;9.52;3.97;;;;;;;;;;4964072;28;20134;-62
2021/09/20 00:18:18;;;;;;;9.68;3.88;;;;;;;;;;4997265;28;20036;-61
2021/09/20 00:20:46;;;;;;;5.30;2.90;;;;;;;;;;4997392;28;20025;-62
2021/09/20 00:23:14;;;;;;;8.88;3.90;;;;;;;;;;4997531;28;20037;-62
2021/09/20 00:25:39;;;;;;;6.85;3.67;;;;;;;;;;5013447;28;20037;-62
2021/09/20 00:28:05;;;;;;;6.93;3.75;;;;;;;;;;5010146;28;20034;-62
2021/09/20 00:30:36;;;;;;;11.73;4.38;;;;;;;;;;4998154;28;20152;-62
2021/09/20 00:33:04;;;;;;;11.50;3.90;;;;;;;;;;5003490;28;20042;-62
2021/09/20 00:35:30;;;;;;;7.63;3.65;;;;;;;;;;4991024;28;20030;-62
2021/09/20 00:37:59;;;;;;;7.97;4.03;;;;;;;;;;4993975;28;20085;-62
2021/09/20 00:40:27;;;;;;;8.70;3.47;;;;;;;;;;4978955;28;20037;-61
2021/09/20 00:42:55;;;;;;;9.20;4.07;;;;;;;;;;4984334;28;20052;-61
2021/09/20 00:45:24;;;;;;;8.38;4.10;;;;;;;;;;4995516;28;20041;-63
2021/09/20 00:47:57;;;;;;;7.63;4.07;;;;;;;;;;4992585;28;20461;-61
2021/09/20 00:50:22;;;;;;;12.52;4.15;;;;;;;;;;4987945;28;20070;-61
2021/09/20 00:52:50;;;;;;;10.20;4.60;;;;;;;;;;4982287;28;20550;-61
2021/09/20 00:55:16;;;;;;;11.02;4.28;;;;;;;;;;4997904;28;20033;-61
2021/09/20 00:57:44;;;;;;;9.35;4.75;;;;;;;;;;4996811;28;20033;-61
2021/09/20 01:00:13;;;;;;;7.03;3.50;;;;;;;;;;4994687;28;20041;-61
2021/09/20 01:02:39;;;;;;;8.73;3.95;;;;;;;;;;4988213;28;20026;-62
2021/09/20 01:05:07;;;;;;;9.32;4.05;;;;;;;;;;4995266;28;20502;-62
2021/09/20 01:07:36;;;;;;;8.85;4.60;;;;;;;;;;5000518;28;20132;-61
2021/09/20 01:10:05;;;;;;;9.85;4.32;;;;;;;;;;5000648;28;20069;-62
2021/09/20 01:12:30;;;;;;;10.40;4.28;;;;;;;;;;4997280;28;20124;-61
2021/09/20 01:14:59;;;;;;;10.52;4.65;;;;;;;;;;5002271;28;20026;-61
2021/09/20 01:17:27;;;;;;;8.40;4.35;;;;;;;;;;4997448;28;20030;-61
2021/09/20 01:19:52;;;;;;;9.38;4.82;;;;;;;;;;4999617;28;20029;-61
2021/09/20 01:22:21;;;;;;;11.80;4.22;;;;;;;;;;5000823;28;20033;-61
2021/09/20 01:24:53;;;;;;;10.98;4.60;;;;;;;;;;4982351;28;20049;-62
2021/09/20 01:27:21;;;;;;;14.02;4.80;;;;;;;;;;4997300;28;20037;-62
2021/09/20 01:29:50;;;;;;;8.57;4.28;;;;;;;;;;4999300;28;20029;-61
2021/09/20 01:32:15;;;;;;;8.55;4.38;;;;;;;;;;4994335;28;20594;-61
2021/09/20 01:34:41;;;;;;;8.65;3.78;;;;;;;;;;4981261;28;20072;-61
2021/09/20 01:37:09;;;;;;;8.27;3.92;;;;;;;;;;4978384;28;20156;-61
2021/09/20 01:39:37;;;;;;;10.70;5.03;;;;;;;;;;4999904;28;20499;-61
2021/09/20 01:42:04;;;;;;;9.30;4.05;;;;;;;;;;5000189;28;20036;-61
2021/09/20 01:44:29;;;;;;;10.57;4.78;;;;;;;;;;4978667;28;20036;-61
2021/09/20 01:46:56;;;;;;;7.72;4.20;;;;;;;;;;5000153;28;20060;-62
2021/09/20 01:49:22;;;;;;;9.27;4.57;;;;;;;;;;4998188;28;21004;-62
2021/09/20 01:51:48;;;;;;;9.52;4.80;;;;;;;;;;4999714;28;20025;-61
2021/09/20 01:54:16;;;;;;;9.70;4.40;;;;;;;;;;4981230;28;20061;-60
2021/09/20 01:56:44;;;;;;;7.38;4.30;;;;;;;;;;4979032;28;20029;-61
2021/09/20 01:59:10;;;;;;;14.35;5.00;;;;;;;;;;4983580;28;20026;-63
2021/09/20 02:01:37;;;;;;;6.90;4.07;;;;;;;;;;4997376;28;20025;-61
2021/09/20 02:04:05;;;;;;;12.02;4.50;;;;;;;;;;4977176;28;20505;-61
2021/09/20 02:06:33;;;;;;;10.20;3.97;;;;;;;;;;5000262;28;20180;-62
2021/09/20 02:08:59;;;;;;;13.35;4.57;;;;;;;;;;4958636;28;21991;-62
2021/09/20 02:11:24;;;;;;;14.63;5.32;;;;;;;;;;4983341;28;20030;-62
2021/09/20 02:13:53;;;;;;;9.43;4.75;;;;;;;;;;4994506;28;20523;-62
2021/09/20 02:16:21;;;;;;;8.65;4.03;;;;;;;;;;4999444;28;20724;-62
2021/09/20 02:18:49;;;;;;;7.95;4.10;;;;;;;;;;4984987;28;20025;-62
2021/09/20 02:21:15;;;;;;;11.43;4.60;;;;;;;;;;4978738;28;20029;-61
2021/09/20 02:23:41;;;;;;;8.30;4.20;;;;;;;;;;4999310;28;20033;-62
2021/09/20 02:26:06;;;;;;;9.77;4.68;;;;;;;;;;4998145;28;20034;-61
2021/09/20 02:28:38;;;;;;;8.68;4.25;;;;;;;;;;5000012;28;20124;-61
2021/09/20 02:31:04;;;;;;;10.13;4.72;;;;;;;;;;5013800;28;20042;-62
2021/09/20 02:33:30;;;;;;;6.97;4.05;;;;;;;;;;4978475;28;20029;-62
2021/09/20 02:35:56;;;;;;;12.57;5.20;;;;;;;;;;4997970;28;20033;-61
2021/09/20 02:38:21;;;;;;;9.15;4.43;;;;;;;;;;4998689;28;21062;-61
2021/09/20 02:40:47;;;;;;;9.70;4.75;;;;;;;;;;4997329;28;20045;-62
2021/09/20 02:43:13;;;;;;;10.45;4.72;;;;;;;;;;4981235;28;20627;-61
2021/09/20 02:45:38;;;;;;;8.90;4.50;;;;;;;;;;4982979;28;20042;-62
2021/09/20 02:48:06;;;;;;;11.15;4.95;;;;;;;;;;4990794;28;20041;-62
2021/09/20 02:50:34;;;;;;;10.75;4.60;;;;;;;;;;4960306;28;20154;-61
2021/09/20 02:53:02;;;;;;;7.07;3.92;;;;;;;;;;4979660;28;20062;-61
2021/09/20 02:55:29;;;;;;;8.40;4.80;;;;;;;;;;4998149;28;20041;-60
2021/09/20 02:57:55;;;;;;;7.78;3.97;;;;;;;;;;4978913;28;20038;-61
2021/09/20 03:00:20;;;;;;;14.20;4.68;;;;;;;;;;4998522;28;20131;-61
2021/09/20 03:02:48;;;;;;;11.60;4.95;;;;;;;;;;4965422;28;20058;-61
2021/09/20 03:05:13;;;;;;;7.90;4.25;;;;;;;;;;4981489;28;20400;-61
2021/09/20 03:07:39;;;;;;;13.65;5.05;;;;;;;;;;4997380;28;20096;-61
2021/09/20 03:10:04;;;;;;;8.68;4.50;;;;;;;;;;4997837;28;20041;-61
2021/09/20 03:12:30;;;;;;;8.52;4.00;;;;;;;;;;4976602;28;20034;-61
2021/09/20 03:14:55;;;;;;;7.38;4.65;;;;;;;;;;4982069;28;21082;-62
2021/09/20 03:17:21;;;;;;;6.53;3.55;;;;;;;;;;4985322;28;20044;-61
2021/09/20 03:19:48;;;;;;;8.85;4.47;;;;;;;;;;4977319;28;20026;-61
2021/09/20 03:22:16;;;;;;;9.85;4.35;;;;;;;;;;4985763;28;20660;-62
2021/09/20 03:24:42;;;;;;;13.38;4.47;;;;;;;;;;4982417;28;20184;-61
2021/09/20 03:27:07;;;;;;;8.55;3.90;;;;;;;;;;4980243;28;20033;-63
2021/09/20 03:29:33;;;;;;;6.60;3.78;;;;;;;;;;4996920;28;20611;-62
2021/09/20 03:32:03;;;;;;;11.40;5.00;;;;;;;;;;4973375;28;20018;-61
2021/09/20 03:34:33;;;;;;;9.30;4.03;;;;;;;;;;4996459;28;20037;-63
2021/09/20 03:36:59;;;;;;;11.18;4.65;;;;;;;;;;4965272;28;20597;-63
2021/09/20 03:39:24;;;;;;;7.00;4.15;;;;;;;;;;4975840;28;20056;-62
2021/09/20 03:41:52;;;;;;;6.93;3.92;;;;;;;;;;4998814;28;20351;-62
2021/09/20 03:44:20;;;;;;;9.65;4.50;;;;;;;;;;5013677;28;20032;-63
2021/09/20 03:46:48;;;;;;;9.65;4.00;;;;;;;;;;5006134;28;20801;-61
2021/09/20 03:49:16;;;;;;;16.45;4.60;;;;;;;;;;4997414;28;20034;-62
2021/09/20 03:51:44;;;;;;;9.32;4.53;;;;;;;;;;4998395;28;20151;-61
2021/09/20 03:54:10;;;;;;;10.77;3.90;;;;;;;;;;4997638;28;20597;-61
2021/09/20 03:56:40;;;;;;;9.73;4.55;;;;;;;;;;4981510;28;20180;-61
2021/09/20 03:59:05;;;;;;;8.18;4.50;;;;;;;;;;4996438;28;21280;-62
2021/09/20 04:01:31;;;;;;;7.55;3.95;;;;;;;;;;4998152;28;20040;-62
2021/09/20 04:04:02;;;;;;;8.80;4.05;;;;;;;;;;4981310;28;20539;-61
2021/09/20 04:06:30;;;;;;;8.32;4.43;;;;;;;;;;4981018;28;20145;-62
2021/09/20 04:09:02;;;;;;;8.48;3.90;;;;;;;;;;4978941;28;20041;-61
2021/09/20 04:11:40;;;;;;;7.63;4.65;;;;;;;;;;4979502;28;20076;-63
2021/09/20 04:14:05;;;;;;;11.38;3.90;;;;;;;;;;4997381;28;20045;-62
2021/09/20 04:16:31;;;;;;;5.43;3.70;;;;;;;;;;4973771;28;20029;-62
2021/09/20 04:18:56;;;;;;;7.45;3.30;;;;;;;;;;4996025;28;20033;-61
2021/09/20 04:21:22;;;;;;;8.70;4.25;;;;;;;;;;4996007;28;20033;-62
2021/09/20 04:23:48;;;;;;;8.93;4.35;;;;;;;;;;5008967;28;20096;-62
2021/09/20 04:26:14;;;;;;;9.23;4.47;;;;;;;;;;4974445;28;20057;-62
2021/09/20 04:28:40;;;;;;;8.00;3.95;;;;;;;;;;4975263;28;20053;-62
2021/09/20 04:31:05;;;;;;;7.97;4.00;;;;;;;;;;4998691;28;20057;-62
2021/09/20 04:33:31;;;;;;;7.82;4.30;;;;;;;;;;5011632;28;20045;-62
2021/09/20 04:35:56;;;;;;;7.40;3.17;;;;;;;;;;4978619;28;20045;-63
2021/09/20 04:38:22;;;;;;;9.20;4.25;;;;;;;;;;4996192;28;20049;-61
2021/09/20 04:40:52;;;;;;;9.85;3.97;;;;;;;;;;4981491;28;20501;-62
2021/09/20 04:43:20;;;;;;;6.20;3.88;;;;;;;;;;4984199;28;20334;-62
2021/09/20 04:45:54;;;;;;;6.20;3.83;;;;;;;;;;5001313;28;20116;-62
2021/09/20 04:48:27;;;;;;;7.60;3.53;;;;;;;;;;4998289;28;20045;-64
2021/09/20 04:50:57;;;;;;;8.32;3.60;;;;;;;;;;4999929;28;20065;-62
2021/09/20 04:53:25;;;;;;;9.25;3.63;;;;;;;;;;4999710;28;20515;-62
2021/09/20 04:55:51;;;;;;;7.60;3.55;;;;;;;;;;5000861;28;20034;-61
2021/09/20 04:58:16;;;;;;;8.00;3.47;;;;;;;;;;4993435;28;21063;-63
2021/09/20 05:00:44;;;;;;;7.20;3.78;;;;;;;;;;5003329;28;20160;-63
2021/09/20 05:03:10;;;;;;;7.63;3.63;;;;;;;;;;5000177;28;20546;-61
2021/09/20 05:05:35;;;;;;;9.65;3.30;;;;;;;;;;5000489;28;20484;-63
2021/09/20 05:08:01;;;;;;;7.90;3.20;;;;;;;;;;5010707;28;20030;-63
2021/09/20 05:10:27;;;;;;;11.65;3.38;;;;;;;;;;4988544;28;20029;-62
2021/09/20 05:12:53;;;;;;;12.20;3.63;;;;;;;;;;5015502;28;22019;-63
2021/09/20 05:15:20;;;;;;;9.57;3.70;;;;;;;;;;4982189;28;20037;-63
2021/09/20 05:17:47;;;;;;;8.65;3.30;;;;;;;;;;5001178;28;20021;-64
2021/09/20 05:20:17;;;;;;;6.43;3.35;;;;;;;;;;4999535;28;20071;-62
2021/09/20 05:22:45;;;;;;;6.82;3.40;;;;;;;;;;4988440;28;20297;-62
2021/09/20 05:25:10;;;;;;;6.75;3.50;;;;;;;;;;4970377;28;20029;-62
2021/09/20 05:27:36;;;;;;;7.43;3.72;;;;;;;;;;4998647;28;20045;-62
2021/09/20 05:30:03;;;;;;;6.60;3.05;;;;;;;;;;4997946;28;20029;-62
2021/09/20 05:32:29;;;;;;;6.63;3.38;;;;;;;;;;4999566;28;20451;-62
2021/09/20 05:34:57;;;;;;;7.07;3.63;;;;;;;;;;4983458;28;20025;-62
2021/09/20 05:37:23;;;;;;;6.78;3.53;;;;;;;;;;5013020;28;20053;-62
2021/09/20 05:39:51;;;;;;;8.27;3.25;;;;;;;;;;4976554;28;20053;-62
2021/09/20 05:42:19;;;;;;;7.72;2.95;;;;;;;;;;4983912;28;20030;-62
2021/09/20 05:44:45;;;;;;;4.53;3.40;;;;;;;;;;4981044;28;20453;-61
2021/09/20 05:47:11;;;;;;;6.28;3.30;;;;;;;;;;4987205;28;20401;-63
2021/09/20 05:49:39;;;;;;;9.05;3.50;;;;;;;;;;5011318;28;20038;-60
2021/09/20 05:52:05;;;;;;;7.88;3.25;;;;;;;;;;5001587;28;20040;-60
2021/09/20 05:54:32;;;;;;;8.73;3.85;;;;;;;;;;4998984;28;20535;-62
2021/09/20 05:57:03;;;;;;;8.25;3.83;;;;;;;;;;5000258;28;20029;-62
2021/09/20 05:59:31;;;;;;;7.45;2.92;;;;;;;;;;4982711;28;20049;-62
2021/09/20 06:01:57;;;;;;;7.32;3.08;;;;;;;;;;4997165;28;20061;-63
2021/09/20 06:04:24;;;;;;;5.10;3.35;;;;;;;;;;4975191;28;20181;-62
2021/09/20 06:06:49;;;;;;;6.53;3.28;;;;;;;;;;4999457;28;20037;-60
2021/09/20 06:09:15;;;;;;;7.25;3.15;;;;;;;;;;5014881;28;20026;-61
2021/09/20 06:11:43;;;;;;;4.07;2.80;;;;;;;;;;4999399;28;20041;-61
2021/09/20 06:14:08;;;;;;;5.35;2.78;;;;;;;;;;4980704;28;20041;-61
2021/09/20 06:16:38;;;;;;;5.35;2.88;;;;;;;;;;4986492;28;20033;-61
2021/09/20 06:19:03;;;;;;;6.88;3.20;;;;;;;;;;4982069;28;20046;-62
2021/09/20 06:21:29;;;;;;;7.43;2.97;;;;;;;;;;4999633;28;20057;-61
2021/09/20 06:23:54;;;;;;;5.97;3.15;;;;;;;;;;5001921;28;20061;-61
2021/09/20 06:26:22;;;;;;;7.53;3.17;;;;;;;;;;4999335;28;20030;-63
2021/09/20 06:28:48;;;;;;;7.40;2.88;;;;;;;;;;4997987;28;20132;-61
2021/09/20 06:31:18;;;;;;;7.70;3.30;;;;;;;;;;4999001;28;20103;-61
2021/09/20 06:33:46;;;;;;;10.90;3.13;;;;;;;;;;4999891;28;20173;-61
2021/09/20 06:36:13;;;;;;;3.88;2.80;;;;;;;;;;4983241;28;20057;-61
2021/09/20 06:38:39;;;;;;;4.60;3.00;;;;;;;;;;4992686;28;20046;-62
2021/09/20 06:41:15;;;;;;;6.78;3.45;;;;;;;;;;4999252;28;20026;-63
2021/09/20 06:43:41;;;;;;;10.68;2.88;;;;;;;;;;4981350;28;20080;-63
2021/09/20 06:46:06;;;;;;;5.85;2.70;;;;;;;;;;5000880;28;20116;-62
2021/09/20 06:48:32;;;;;;;5.32;2.58;;;;;;;;;;4988901;28;20025;-63
2021/09/20 06:50:59;;;;;;;5.03;2.92;;;;;;;;;;4999176;28;20900;-62
2021/09/20 06:53:24;;;;;;;6.35;3.20;;;;;;;;;;4988799;28;20922;-62
2021/09/20 06:55:52;;;;;;;8.02;2.60;;;;;;;;;;4999369;28;20029;-63
2021/09/20 06:58:17;;;;;;;5.03;2.67;;;;;;;;;;4981388;28;20567;-63
2021/09/20 07:00:43;;;;;;;3.83;2.70;;;;;;;;;;4999126;28;20021;-62
2021/09/20 07:03:12;;;;;;;8.95;2.95;;;;;;;;;;4997492;28;20042;-62
2021/09/20 07:05:38;;;;;;;4.93;2.72;;;;;;;;;;4999891;28;20026;-63
2021/09/20 07:08:03;;;;;;;7.03;2.83;;;;;;;;;;4998716;28;21092;-63
2021/09/20 07:10:29;;;;;;;5.28;2.35;;;;;;;;;;4998067;28;20029;-63
2021/09/20 07:12:56;;;;;;;4.63;2.15;;;;;;;;;;4996799;28;20072;-63
2021/09/20 07:15:22;;;;;;;6.13;2.67;;;;;;;;;;4996785;28;20021;-61
2021/09/20 07:17:48;;;;;;;8.20;2.75;;;;;;;;;;4998348;28;20030;-63
2021/09/20 07:20:15;;;;;;;3.25;2.38;;;;;;;;;;4998103;28;20037;-64
2021/09/20 07:22:43;;;;;;;9.23;2.58;;;;;;;;;;5009158;28;20646;-62
2021/09/20 07:25:09;;;;;;;3.45;2.25;;;;;;;;;;5000739;28;20025;-63
2021/09/20 07:27:35;;;;;;;8.18;2.20;;;;;;;;;;4993133;28;20041;-62
2021/09/20 07:30:00;;;;;;;4.25;2.67;;;;;;;;;;4995266;28;20108;-62
2021/09/20 07:32:26;;;;;;;4.68;2.10;;;;;;;;;;5012346;28;20053;-62
2021/09/20 07:34:52;;;;;;;4.93;1.90;;;;;;;;;;4995854;28;20028;-61
2021/09/20 07:37:20;;;;;;;7.53;2.50;;;;;;;;;;4998577;28;20046;-62
2021/09/20 07:39:50;;;;;;;6.15;2.17;;;;;;;;;;4980156;28;20022;-62
2021/09/20 07:42:18;;;;;;;6.00;2.42;;;;;;;;;;4964799;28;20037;-62
2021/09/20 07:44:46;;;;;;;6.22;1.80;;;;;;;;;;5000366;28;20032;-61
2021/09/20 07:47:14;;;;;;;8.18;2.40;;;;;;;;;;4990682;28;20033;-63
2021/09/20 07:49:40;;;;;;;5.88;2.45;;;;;;;;;;4999752;28;20032;-62
2021/09/20 07:52:05;;;;;;;6.72;2.17;;;;;;;;;;4997448;28;20544;-63
2021/09/20 07:54:30;;;;;;;4.93;2.38;;;;;;;;;;4998894;28;20144;-62
2021/09/20 07:56:56;;;;;;;5.38;2.55;;;;;;;;;;5000106;28;20040;-62
2021/09/20 07:59:24;;;;;;;4.80;2.45;;;;;;;;;;4998189;28;20068;-61
2021/09/20 08:01:49;;;;;;;4.85;2.20;;;;;;;;;;4964116;28;21128;-63
2021/09/20 08:04:15;;;;;;;3.33;1.83;;;;;;;;;;4997158;28;20040;-62
2021/09/20 08:06:42;;;;;;;4.03;2.10;;;;;;;;;;5013489;28;20029;-63
2021/09/20 08:09:09;;;;;;;4.05;2.30;;;;;;;;;;4998065;28;20041;-63
2021/09/20 08:11:34;;;;;;;6.07;2.47;;;;;;;;;;4997821;28;20042;-62
2021/09/20 08:14:00;;;;;;;5.40;2.45;;;;;;;;;;4994864;28;20045;-62
2021/09/20 08:16:27;;;;;;;4.85;2.47;;;;;;;;;;4981474;28;20449;-62
2021/09/20 08:18:52;;;;;;;6.75;2.70;;;;;;;;;;4978543;28;20132;-62
2021/09/20 08:21:18;;;;;;;4.78;2.22;;;;;;;;;;4996398;28;20481;-62
2021/09/20 08:23:43;;;;;;;6.18;2.47;;;;;;;;;;4999320;28;20037;-63
2021/09/20 08:26:09;;;;;;;3.85;2.45;;;;;;;;;;5012829;28;20037;-63
2021/09/20 08:28:34;;;;;;;6.43;2.53;;;;;;;;;;4980641;28;20075;-63
2021/09/20 08:31:00;;;;;;;6.43;2.60;;;;;;;;;;4992138;28;20038;-61
2021/09/20 08:33:26;;;;;;;3.50;1.80;;;;;;;;;;4994663;28;20036;-62
2021/09/20 08:35:52;;;;;;;4.85;2.00;;;;;;;;;;4991539;28;20049;-62
2021/09/20 08:38:17;;;;;;;2.72;2.05;;;;;;;;;;4985830;28;20045;-62
2021/09/20 08:40:45;;;;;;;6.50;1.90;;;;;;;;;;4993767;28;20038;-63
2021/09/20 08:43:14;;;;;;;3.92;1.52;;;;;;;;;;4978200;28;20064;-61
2021/09/20 08:45:43;;;;;;;5.28;1.70;;;;;;;;;;4997121;28;20055;-62
2021/09/20 08:48:11;;;;;;;3.95;1.92;;;;;;;;;;4977842;28;20061;-63
2021/09/20 08:50:40;;;;;;;8.38;2.00;;;;;;;;;;4994877;28;20300;-62
2021/09/20 08:53:08;;;;;;;4.28;1.85;;;;;;;;;;4997498;28;20150;-61
2021/09/20 08:55:34;;;;;;;2.00;1.40;;;;;;;;;;4998261;28;20030;-62
2021/09/20 08:58:00;;;;;;;4.57;1.50;;;;;;;;;;4997365;28;20178;-62
2021/09/20 09:00:28;;;;;;;7.13;1.83;;;;;;;;;;5006314;28;20073;-64
2021/09/20 09:02:54;;;;;;;5.38;1.83;;;;;;;;;;4996175;28;20148;-63
2021/09/20 09:05:22;;;;;;;2.92;1.65;;;;;;;;;;4978617;28;20985;-63
2021/09/20 09:07:58;;;;;;;7.78;2.17;;;;;;;;;;4998367;28;20036;-61
2021/09/20 09:10:25;;;;;;;4.93;1.80;;;;;;;;;;4996127;28;20033;-61
2021/09/20 09:12:51;;;;;;;9.73;2.38;;;;;;;;;;4995497;28;20066;-62
2021/09/20 09:15:18;;;;;;;6.82;2.05;;;;;;;;;;4993845;28;20124;-63
2021/09/20 09:17:45;;;;;;;3.50;1.80;;;;;;;;;;4993637;28;20409;-62
2021/09/20 09:20:13;;;;;;;4.18;2.25;;;;;;;;;;4998251;28;20041;-64
2021/09/20 09:22:43;;;;;;;5.38;2.20;;;;;;;;;;4996005;28;20029;-63
2021/09/20 09:25:10;;;;;;;2.10;1.35;;;;;;;;;;4995067;28;20034;-63
2021/09/20 09:27:40;;;;;;;6.05;1.38;;;;;;;;;;4999140;28;20112;-63
2021/09/20 09:30:14;;;;;;;4.93;2.45;;;;;;;;;;5000307;28;20099;-61
2021/09/20 09:32:41;;;;;;;2.53;1.63;;;;;;;;;;5006948;28;20037;-63
2021/09/20 09:35:08;;;;;;;5.47;1.85;;;;;;;;;;4999679;28;20033;-62
2021/09/20 09:37:37;;;;;;;2.08;1.52;;;;;;;;;;5007715;28;20046;-63
2021/09/20 09:40:12;;;;;;;4.50;2.05;;;;;;;;;;5001159;28;20404;-63
2021/09/20 09:42:38;;;;;;;2.50;1.70;;;;;;;;;;4998719;28;20026;-62
2021/09/20 09:45:16;;;;;;;2.00;1.45;;;;;;;;;;4989814;28;20031;-62
2021/09/20 09:47:44;;;;;;;6.57;1.88;;;;;;;;;;4999920;28;20760;-62
2021/09/20 09:50:21;;;;;;;2.17;1.40;;;;;;;;;;5000118;28;20125;-62
2021/09/20 09:52:52;;;;;;;3.00;1.80;;;;;;;;;;5001245;28;20033;-63
2021/09/20 09:55:18;;;;;;;3.75;1.88;;;;;;;;;;5015595;28;20045;-63
2021/09/20 09:57:44;;;;;;;1.50;1.30;;;;;;;;;;5001812;28;20029;-63
2021/09/20 10:00:31;;;;;;;2.97;1.33;;;;;;;;;;4994713;23;20083;-90
2021/09/20 10:03:03;;;;;;;6.60;1.67;;;;;;;;;;4968461;28;20832;-88
2021/09/20 10:05:30;;;;;;;3.45;1.10;;;;;;;;;;4979062;28;20023;-89
2021/09/20 10:08:25;;;;;;;3.35;1.40;;;;;;;;;;4993989;28;20069;-90
2021/09/20 10:11:10;;;;;;;3.20;1.20;;;;;;;;;;4996889;28;20045;-89
2021/09/20 10:13:44;;;;;;;7.13;1.10;;;;;;;;;;4997169;28;20401;-90
2021/09/20 10:16:09;;;;;;;6.93;1.40;;;;;;;;;;4963479;28;20027;-91
2021/09/20 10:18:35;;;;;;;3.28;1.30;;;;;;;;;;4994447;28;20110;-92
2021/09/20 10:21:07;;;;;;;2.50;1.00;;;;;;;;;;4994689;28;20022;-93
2021/09/20 10:23:33;;;;;;;4.47;1.27;;;;;;;;;;5012866;28;20041;-91
2021/09/20 10:25:58;;;;;;;2.55;1.15;;;;;;;;;;4994209;28;20033;-88
2021/09/20 10:28:32;;;;;;;2.45;1.25;;;;;;;;;;4992966;28;20040;-87
2021/09/20 10:30:58;;;;;;;5.75;1.15;;;;;;;;;;5014431;28;20038;-88
2021/09/20 10:33:34;;;;;;;4.57;1.20;;;;;;;;;;5007139;28;20102;-89
2021/09/20 10:36:00;;;;;;;3.78;1.23;;;;;;;;;;5014651;28;20449;-90
2021/09/20 10:38:29;;;;;;;4.13;1.40;;;;;;;;;;4980333;28;20118;-90
2021/09/20 10:41:26;;;;;;;1.92;1.25;;;;;;;;;;4997850;28;20026;-90
2021/09/20 10:44:04;;;;;;;4.32;1.10;;;;;;;;;;4995631;28;20033;-91
2021/09/20 10:46:32;;;;;;;4.63;1.40;;;;;;;;;;4977303;28;20030;-92
2021/09/20 10:49:28;;;;;;;3.55;1.02;;;;;;;;;;4981376;28;20130;-90
2021/09/20 10:52:04;;;;;;;5.75;1.10;;;;;;;;;;4992497;28;20048;-88
2021/09/20 10:54:29;;;;;;;2.72;1.02;;;;;;;;;;4992705;28;20050;-90
2021/09/20 10:57:10;;;;;;;1.27;0.80;;;;;;;;;;4992172;28;20060;-89
2021/09/20 10:59:36;;;;;;;2.05;1.00;;;;;;;;;;5004636;28;20033;-92
2021/09/20 11:02:06;;;;;;;3.60;1.20;;;;;;;;;;4996416;28;20033;-91
2021/09/20 11:04:33;;;;;;;1.50;0.90;;;;;;;;;;5002141;28;20042;-90
2021/09/20 11:07:12;;;;;;;4.25;1.10;;;;;;;;;;5001551;28;20041;-89
2021/09/20 11:09:50;;;;;;;2.83;0.98;;;;;;;;;;5017342;28;20045;-90
2021/09/20 11:12:19;;;;;;;2.38;1.00;;;;;;;;;;4981962;28;20102;-90
2021/09/20 11:15:01;;;;;;;1.45;0.98;;;;;;;;;;5001259;28;20076;-88
2021/09/20 11:17:30;;;;;;;5.32;1.25;;;;;;;;;;5001756;28;20110;-90
2021/09/20 11:19:57;;;;;;;6.22;1.10;;;;;;;;;;5002505;28;20026;-92
2021/09/20 11:22:33;;;;;;;3.05;0.80;;;;;;;;;;5017600;28;20088;-90
2021/09/20 11:25:03;;;;;;;1.60;0.80;;;;;;;;;;5007024;28;20021;-90
2021/09/20 11:27:37;;;;;;;2.63;0.90;;;;;;;;;;5001816;28;20030;-92
2021/09/20 11:30:03;;;;;;;;;;;;;;;;;;4991693;28;20049;-92
2021/09/20 11:32:28;;;;;;;2.30;0.82;;;;;;;;;;5000984;28;19913;-90
2021/09/20 11:34:58;;;;;;;2.42;0.70;;;;;;;;;;4982935;28;20026;-93
2021/09/20 11:37:29;;;;;;;1.65;0.80;;;;;;;;;;4997383;28;20463;-90
2021/09/20 11:40:00;;;;;;;2.63;0.77;;;;;;;;;;4996314;28;20089;-91
2021/09/20 11:43:04;;;;;;;2.55;1.02;;;;;;;;;;4991588;28;20041;-91
2021/09/20 11:45:30;;;;;;;;;;;;;;;;;;4991030;28;20041;-93
2021/09/20 11:48:06;;;;;;;7.15;1.30;;;;;;;;;;4994980;28;20332;-91
2021/09/20 11:50:33;;;;;;;4.07;0.70;;;;;;;;;;4983199;28;20057;-87
2021/09/20 11:53:30;;;;;;;3.22;1.05;;;;;;;;;;5002849;28;20189;-91
2021/09/20 11:55:56;;;;;;;2.15;1.08;;;;;;;;;;4996517;28;20028;-90
2021/09/20 11:58:50;;;;;;;1.50;0.80;;;;;;;;;;4994802;28;20026;-92
2021/09/20 12:01:20;;;;;;;3.22;0.93;;;;;;;;;;4993441;28;20405;-90
2021/09/20 12:03:51;;;;;;;1.52;0.73;;;;;;;;;;4989854;28;20037;-89
2021/09/20 12:06:16;;;;;;;2.15;0.80;;;;;;;;;;5005690;28;20053;-88
2021/09/20 12:08:42;;;;;;;2.35;0.60;;;;;;;;;;4992745;28;20091;-89
2021/09/20 12:11:20;;;;;;;1.50;0.65;;;;;;;;;;4991508;28;20054;-89
2021/09/20 12:13:46;;;;;;;0.57;0.55;;;;;;;;;;5009266;28;20026;-87
2021/09/20 12:16:21;;;;;;;1.95;0.55;;;;;;;;;;5006306;28;20109;-92
2021/09/20 12:18:48;;;;;;;1.50;0.73;;;;;;;;;;4970609;28;20061;-88
2021/09/20 12:21:18;;;;;;;4.90;0.82;;;;;;;;;;4989216;28;20136;-92
2021/09/20 12:23:45;;;;;;;0.93;0.68;;;;;;;;;;5015846;28;20045;-89
2021/09/20 12:26:32;;;;;;;1.67;1.00;;;;;;;;;;5001434;28;20082;-88
2021/09/20 12:29:09;;;;;;;1.85;0.68;;;;;;;;;;4999409;28;20018;-87
2021/09/20 12:31:44;;;;;;;4.20;0.85;;;;;;;;;;5006967;28;20103;-88
2021/09/20 12:34:44;;;;;;;0.85;0.43;;;;;;;;;;5006461;28;20034;-88
2021/09/20 12:37:10;;;;;;;1.17;0.70;;;;;;;;;;4987487;28;20415;-91
2021/09/20 12:39:37;;;;;;;0.75;0.52;;;;;;;;;;4994025;28;20057;-90
2021/09/20 12:42:25;;;;;;;1.15;0.50;;;;;;;;;;4992841;28;20030;-92
2021/09/20 12:44:53;;;;;;;1.00;0.50;;;;;;;;;;4976654;28;20564;-93
2021/09/20 12:47:21;;;;;;;0.57;0.55;;;;;;;;;;4982855;28;20030;-90
2021/09/20 12:49:58;;;;;;;1.65;0.63;;;;;;;;;;4976583;28;20065;-91
2021/09/20 12:52:33;;;;;;;2.83;0.60;;;;;;;;;;5000459;28;20026;-90
2021/09/20 12:54:59;;;;;;;1.42;0.82;;;;;;;;;;4989945;28;20034;-91
2021/09/20 12:57:30;;;;;;;2.50;0.70;;;;;;;;;;4990924;28;20035;-92
2021/09/20 13:00:12;;;;;;;2.05;0.55;;;;;;;;;;4983584;28;20110;-89
2021/09/20 13:02:39;;;;;;;1.08;0.47;;;;;;;;;;5000786;28;20037;-91
2021/09/20 13:05:05;;;;;;;2.45;0.60;;;;;;;;;;4983197;28;20084;-92
2021/09/20 13:07:45;;;;;;;0.47;0.40;;;;;;;;;;4999756;28;20026;-91
2021/09/20 13:10:18;;;;;;;1.95;0.40;;;;;;;;;;4999199;28;20018;-88
2021/09/20 13:13:01;;;;;;;1.70;0.50;;;;;;;;;;4991076;28;20054;-90
2021/09/20 13:15:29;;;;;;;1.45;0.50;;;;;;;;;;4996496;28;20034;-92
2021/09/20 13:18:24;;;;;;;0.30;0.30;;;;;;;;;;4998539;28;20045;-91
2021/09/20 13:20:53;;;;;;;3.67;0.50;;;;;;;;;;5004078;28;20030;-91
2021/09/20 13:23:21;;;;;;;1.90;0.60;;;;;;;;;;4996219;28;20025;-92
2021/09/20 13:25:50;;;;;;;1.98;0.68;;;;;;;;;;4996662;28;20050;-87
2021/09/20 13:28:35;;;;;;;1.75;0.70;;;;;;;;;;5020887;28;20025;-91
2021/09/20 13:31:05;;;;;;;1.52;0.50;;;;;;;;;;5010406;28;20014;-87
2021/09/20 13:33:50;;;;;;;2.33;0.52;;;;;;;;;;5011674;28;20026;-89
2021/09/20 13:36:15;;;;;;;2.40;0.60;;;;;;;;;;5023843;28;20035;-87
2021/09/20 13:38:51;;;;;;;2.20;0.70;;;;;;;;;;5028330;28;20061;-90
2021/09/20 13:41:17;;;;;;;0.80;0.40;;;;;;;;;;5010967;28;20022;-89
2021/09/20 13:43:53;;;;;;;2.92;0.95;;;;;;;;;;5028244;28;20025;-90
2021/09/20 13:46:39;;;;;;;0.80;0.45;;;;;;;;;;4982893;28;20042;-90
2021/09/20 13:49:05;;;;;;;1.20;0.50;;;;;;;;;;5023613;28;20026;-88
2021/09/20 13:51:33;;;;;;;1.92;0.70;;;;;;;;;;5002823;28;20018;-87
2021/09/20 13:54:02;;;;;;;2.40;0.55;;;;;;;;;;4976215;28;20447;-87
2021/09/20 13:56:28;;;;;;;0.88;0.40;;;;;;;;;;5017198;28;20134;-88
2021/09/20 13:59:17;;;;;;;1.17;0.55;;;;;;;;;;4990421;28;20031;-90
2021/09/20 14:01:42;;;;;;;0.82;0.40;;;;;;;;;;4973869;28;20038;-89
2021/09/20 14:04:08;;;;;;;0.88;0.40;;;;;;;;;;4992765;28;20371;-89
2021/09/20 14:06:41;;;;;;;2.05;0.57;;;;;;;;;;5006970;28;20030;-88
2021/09/20 14:09:07;;;;;;;2.33;0.55;;;;;;;;;;5010440;28;20045;-92
2021/09/20 14:11:32;;;;;;;3.35;0.55;;;;;;;;;;4981748;28;20429;-90
2021/09/20 14:13:58;;;;;;;2.13;1.00;;;;;;;;;;4997239;28;20114;-92
2021/09/20 14:16:23;;;;;;;1.95;0.50;;;;;;;;;;4983597;28;20026;-89
2021/09/20 14:18:51;;;;;;;1.38;0.80;;;;;;;;;;4997772;28;20629;-92
2021/09/20 14:21:19;;;;;;;3.50;1.10;;;;;;;;;;4995032;28;20030;-88
2021/09/20 14:23:44;;;;;;;1.70;0.60;;;;;;;;;;4990905;28;20030;-90
2021/09/20 14:26:11;;;;;;;0.88;0.55;;;;;;;;;;4978150;28;20037;-90
2021/09/20 14:28:37;;;;;;;1.73;0.70;;;;;;;;;;4981019;28;20038;-90
2021/09/20 14:31:05;;;;;;;0.85;0.50;;;;;;;;;;4996700;28;20134;-89
2021/09/20 14:33:33;;;;;;;1.08;0.80;;;;;;;;;;4992946;28;20093;-90
2021/09/20 14:36:02;;;;;;;2.38;0.77;;;;;;;;;;5007789;28;20030;-93
2021/09/20 14:38:29;;;;;;;4.35;0.70;;;;;;;;;;5002231;28;20035;-91
2021/09/20 14:40:55;;;;;;;4.55;0.80;;;;;;;;;;4992313;28;20578;-90
2021/09/20 14:43:21;;;;;;;5.22;1.20;;;;;;;;;;4980027;28;20117;-89
2021/09/20 14:45:46;;;;;;;0.95;0.70;;;;;;;;;;4988177;28;20074;-90
2021/09/20 14:48:14;;;;;;;0.52;0.50;;;;;;;;;;4997699;28;20014;-92
2021/09/20 14:50:42;;;;;;;1.50;0.90;;;;;;;;;;4967599;28;20101;-91
2021/09/20 14:53:08;;;;;;;0.80;0.55;;;;;;;;;;4991864;28;20022;-91